sensor_id;sensor_type;location;lat;lon;timestamp;P1;durP1;ratioP1;P2;durP2;ratioP2
78563;SDS011;67856;47.754;19.088;2023-09-08T00:00:24;4.90;;;3.20;;
78563;SDS011;67856;47.754;19.088;2023-09-08T00:03:26;4.30;;;2.90;;
78563;SDS011;67856;47.754;19.088;2023-09-08T00:06:29;4.27;;;3.00;;
78563;SDS011;67856;47.754;19.088;2023-09-08T00:09:31;4.23;;;2.97;;
78563;SDS011;67856;47.754;19.088;2023-09-08T00:12:34;5.25;;;3.10;;
78563;SDS011;67856;47.754;19.088;2023-09-08T00:15:36;4.72;;;3.00;;
78563;SDS011;67856;47.754;19.088;2023-09-08T00:18:39;4.10;;;3.15;;
78563;SDS011;67856;47.754;19.088;2023-09-08T00:21:41;4.97;;;3.20;;
78563;SDS011;67856;47.754;19.088;2023-09-08T00:24:45;4.50;;;3.00;;
78563;SDS011;67856;47.754;19.088;2023-09-08T00:27:47;4.85;;;3.10;;
78563;SDS011;67856;47.754;19.088;2023-09-08T00:30:49;6.20;;;3.13;;
78563;SDS011;67856;47.754;19.088;2023-09-08T00:33:52;4.35;;;2.83;;
78563;SDS011;67856;47.754;19.088;2023-09-08T00:36:54;4.73;;;2.90;;
78563;SDS011;67856;47.754;19.088;2023-09-08T00:39:57;5.10;;;2.80;;
78563;SDS011;67856;47.754;19.088;2023-09-08T00:42:59;5.35;;;2.97;;
78563;SDS011;67856;47.754;19.088;2023-09-08T00:46:02;4.55;;;2.97;;
78563;SDS011;67856;47.754;19.088;2023-09-08T00:49:05;4.38;;;2.97;;
78563;SDS011;67856;47.754;19.088;2023-09-08T00:52:08;4.97;;;3.03;;
78563;SDS011;67856;47.754;19.088;2023-09-08T00:55:10;3.90;;;2.97;;
78563;SDS011;67856;47.754;19.088;2023-09-08T00:58:13;4.65;;;3.10;;
78563;SDS011;67856;47.754;19.088;2023-09-08T01:01:15;4.07;;;2.90;;
78563;SDS011;67856;47.754;19.088;2023-09-08T01:04:20;4.88;;;2.72;;
78563;SDS011;67856;47.754;19.088;2023-09-08T01:07:23;4.20;;;2.43;;
78563;SDS011;67856;47.754;19.088;2023-09-08T01:10:25;3.77;;;2.73;;
78563;SDS011;67856;47.754;19.088;2023-09-08T01:13:28;4.63;;;2.90;;
78563;SDS011;67856;47.754;19.088;2023-09-08T01:16:31;5.15;;;2.88;;
78563;SDS011;67856;47.754;19.088;2023-09-08T01:19:33;4.78;;;3.10;;
78563;SDS011;67856;47.754;19.088;2023-09-08T01:22:47;3.70;;;2.80;;
78563;SDS011;67856;47.754;19.088;2023-09-08T01:26:12;5.50;;;2.83;;
78563;SDS011;67856;47.754;19.088;2023-09-08T01:29:20;4.15;;;2.90;;
78563;SDS011;67856;47.754;19.088;2023-09-08T01:32:25;4.47;;;2.97;;
78563;SDS011;67856;47.754;19.088;2023-09-08T01:35:28;4.07;;;2.80;;
78563;SDS011;67856;47.754;19.088;2023-09-08T01:38:30;4.30;;;2.77;;
78563;SDS011;67856;47.754;19.088;2023-09-08T01:41:33;4.57;;;2.80;;
78563;SDS011;67856;47.754;19.088;2023-09-08T01:44:36;4.22;;;2.90;;
78563;SDS011;67856;47.754;19.088;2023-09-08T01:47:38;4.43;;;2.70;;
78563;SDS011;67856;47.754;19.088;2023-09-08T01:50:41;4.38;;;2.80;;
78563;SDS011;67856;47.754;19.088;2023-09-08T01:53:43;3.87;;;2.67;;
78563;SDS011;67856;47.754;19.088;2023-09-08T01:56:46;4.03;;;2.70;;
78563;SDS011;67856;47.754;19.088;2023-09-08T01:59:48;4.18;;;3.10;;
78563;SDS011;67856;47.754;19.088;2023-09-08T02:02:50;3.30;;;2.70;;
78563;SDS011;67856;47.754;19.088;2023-09-08T02:05:53;3.83;;;2.75;;
78563;SDS011;67856;47.754;19.088;2023-09-08T02:08:55;5.47;;;2.97;;
78563;SDS011;67856;47.754;19.088;2023-09-08T02:11:58;4.10;;;2.67;;
78563;SDS011;67856;47.754;19.088;2023-09-08T02:15:00;3.83;;;2.80;;
78563;SDS011;67856;47.754;19.088;2023-09-08T02:18:03;3.92;;;2.50;;
78563;SDS011;67856;47.754;19.088;2023-09-08T02:21:06;3.53;;;2.70;;
78563;SDS011;67856;47.754;19.088;2023-09-08T02:24:08;4.30;;;3.00;;
78563;SDS011;67856;47.754;19.088;2023-09-08T02:27:11;4.00;;;2.60;;
78563;SDS011;67856;47.754;19.088;2023-09-08T02:30:14;4.78;;;2.60;;
78563;SDS011;67856;47.754;19.088;2023-09-08T02:33:17;3.80;;;2.78;;
78563;SDS011;67856;47.754;19.088;2023-09-08T02:36:20;4.03;;;2.70;;
78563;SDS011;67856;47.754;19.088;2023-09-08T02:39:29;3.93;;;2.90;;
78563;SDS011;67856;47.754;19.088;2023-09-08T02:42:31;4.03;;;2.87;;
78563;SDS011;67856;47.754;19.088;2023-09-08T02:45:34;4.75;;;2.95;;
78563;SDS011;67856;47.754;19.088;2023-09-08T02:48:38;3.88;;;2.60;;
78563;SDS011;67856;47.754;19.088;2023-09-08T02:51:41;3.60;;;2.60;;
78563;SDS011;67856;47.754;19.088;2023-09-08T02:54:43;4.53;;;2.80;;
78563;SDS011;67856;47.754;19.088;2023-09-08T02:57:46;4.40;;;2.97;;
78563;SDS011;67856;47.754;19.088;2023-09-08T03:00:48;3.85;;;2.50;;
78563;SDS011;67856;47.754;19.088;2023-09-08T03:03:52;4.32;;;2.70;;
78563;SDS011;67856;47.754;19.088;2023-09-08T03:06:55;4.13;;;2.78;;
78563;SDS011;67856;47.754;19.088;2023-09-08T03:09:58;4.53;;;2.80;;
78563;SDS011;67856;47.754;19.088;2023-09-08T03:13:00;4.10;;;2.83;;
78563;SDS011;67856;47.754;19.088;2023-09-08T03:16:03;4.13;;;2.75;;
78563;SDS011;67856;47.754;19.088;2023-09-08T03:19:07;3.95;;;2.63;;
78563;SDS011;67856;47.754;19.088;2023-09-08T03:22:09;3.60;;;2.78;;
78563;SDS011;67856;47.754;19.088;2023-09-08T03:25:15;4.40;;;3.20;;
78563;SDS011;67856;47.754;19.088;2023-09-08T03:28:18;3.53;;;2.70;;
78563;SDS011;67856;47.754;19.088;2023-09-08T03:31:20;3.90;;;2.58;;
78563;SDS011;67856;47.754;19.088;2023-09-08T03:34:23;4.10;;;2.95;;
78563;SDS011;67856;47.754;19.088;2023-09-08T03:37:25;3.67;;;2.53;;
78563;SDS011;67856;47.754;19.088;2023-09-08T03:40:28;4.97;;;2.90;;
78563;SDS011;67856;47.754;19.088;2023-09-08T03:43:31;4.47;;;2.63;;
78563;SDS011;67856;47.754;19.088;2023-09-08T03:46:36;3.95;;;2.75;;
78563;SDS011;67856;47.754;19.088;2023-09-08T03:49:39;3.65;;;2.47;;
78563;SDS011;67856;47.754;19.088;2023-09-08T03:52:41;4.82;;;2.70;;
78563;SDS011;67856;47.754;19.088;2023-09-08T03:55:44;4.07;;;2.67;;
78563;SDS011;67856;47.754;19.088;2023-09-08T03:58:47;5.47;;;2.67;;
78563;SDS011;67856;47.754;19.088;2023-09-08T04:01:49;3.90;;;2.90;;
78563;SDS011;67856;47.754;19.088;2023-09-08T04:04:52;3.85;;;2.80;;
78563;SDS011;67856;47.754;19.088;2023-09-08T04:07:55;3.25;;;2.45;;
78563;SDS011;67856;47.754;19.088;2023-09-08T04:10:57;4.40;;;2.53;;
78563;SDS011;67856;47.754;19.088;2023-09-08T04:14:00;3.13;;;2.37;;
78563;SDS011;67856;47.754;19.088;2023-09-08T04:17:03;3.75;;;2.78;;
78563;SDS011;67856;47.754;19.088;2023-09-08T04:20:06;3.45;;;2.70;;
78563;SDS011;67856;47.754;19.088;2023-09-08T04:23:10;3.50;;;2.70;;
78563;SDS011;67856;47.754;19.088;2023-09-08T04:26:13;3.60;;;2.80;;
78563;SDS011;67856;47.754;19.088;2023-09-08T04:29:15;3.13;;;2.50;;
78563;SDS011;67856;47.754;19.088;2023-09-08T04:32:18;3.60;;;2.53;;
78563;SDS011;67856;47.754;19.088;2023-09-08T04:35:20;4.60;;;2.60;;
78563;SDS011;67856;47.754;19.088;2023-09-08T04:38:22;3.33;;;2.60;;
78563;SDS011;67856;47.754;19.088;2023-09-08T04:41:25;5.00;;;3.00;;
78563;SDS011;67856;47.754;19.088;2023-09-08T04:44:27;3.30;;;2.40;;
78563;SDS011;67856;47.754;19.088;2023-09-08T04:47:30;5.13;;;2.90;;
78563;SDS011;67856;47.754;19.088;2023-09-08T04:50:33;4.07;;;3.00;;
78563;SDS011;67856;47.754;19.088;2023-09-08T04:53:36;4.78;;;3.15;;
78563;SDS011;67856;47.754;19.088;2023-09-08T04:56:40;4.63;;;3.30;;
78563;SDS011;67856;47.754;19.088;2023-09-08T04:59:43;5.60;;;3.47;;
78563;SDS011;67856;47.754;19.088;2023-09-08T05:02:45;6.15;;;3.30;;
78563;SDS011;67856;47.754;19.088;2023-09-08T05:05:48;6.07;;;3.58;;
78563;SDS011;67856;47.754;19.088;2023-09-08T05:08:51;8.30;;;3.67;;
78563;SDS011;67856;47.754;19.088;2023-09-08T05:11:54;6.27;;;3.47;;
78563;SDS011;67856;47.754;19.088;2023-09-08T05:14:57;6.97;;;3.50;;
78563;SDS011;67856;47.754;19.088;2023-09-08T05:18:03;7.80;;;3.92;;
78563;SDS011;67856;47.754;19.088;2023-09-08T05:21:06;5.97;;;3.63;;
78563;SDS011;67856;47.754;19.088;2023-09-08T05:24:09;8.73;;;4.00;;
78563;SDS011;67856;47.754;19.088;2023-09-08T05:27:15;7.93;;;3.90;;
78563;SDS011;67856;47.754;19.088;2023-09-08T05:30:18;6.17;;;4.00;;
78563;SDS011;67856;47.754;19.088;2023-09-08T05:33:21;6.78;;;4.40;;
78563;SDS011;67856;47.754;19.088;2023-09-08T05:36:24;7.88;;;4.50;;
78563;SDS011;67856;47.754;19.088;2023-09-08T05:39:27;8.85;;;4.78;;
78563;SDS011;67856;47.754;19.088;2023-09-08T05:42:30;11.97;;;5.50;;
78563;SDS011;67856;47.754;19.088;2023-09-08T05:45:32;11.97;;;5.57;;
78563;SDS011;67856;47.754;19.088;2023-09-08T05:48:35;12.95;;;5.60;;
78563;SDS011;67856;47.754;19.088;2023-09-08T05:51:39;18.00;;;5.75;;
78563;SDS011;67856;47.754;19.088;2023-09-08T05:54:41;22.00;;;5.38;;
78563;SDS011;67856;47.754;19.088;2023-09-08T05:57:44;12.97;;;5.50;;
78563;SDS011;67856;47.754;19.088;2023-09-08T06:00:47;13.93;;;5.10;;
78563;SDS011;67856;47.754;19.088;2023-09-08T06:03:49;17.75;;;5.70;;
78563;SDS011;67856;47.754;19.088;2023-09-08T06:06:52;14.02;;;5.40;;
78563;SDS011;67856;47.754;19.088;2023-09-08T06:09:55;15.10;;;5.53;;
78563;SDS011;67856;47.754;19.088;2023-09-08T06:12:58;11.87;;;5.40;;
78563;SDS011;67856;47.754;19.088;2023-09-08T06:16:01;11.47;;;5.63;;
78563;SDS011;67856;47.754;19.088;2023-09-08T06:19:03;14.88;;;5.80;;
78563;SDS011;67856;47.754;19.088;2023-09-08T06:22:06;12.15;;;5.20;;
78563;SDS011;67856;47.754;19.088;2023-09-08T06:25:09;10.45;;;5.65;;
78563;SDS011;67856;47.754;19.088;2023-09-08T06:28:12;10.30;;;5.63;;
78563;SDS011;67856;47.754;19.088;2023-09-08T06:31:15;16.63;;;5.67;;
78563;SDS011;67856;47.754;19.088;2023-09-08T06:34:18;12.80;;;5.57;;
78563;SDS011;67856;47.754;19.088;2023-09-08T06:37:24;11.07;;;5.47;;
78563;SDS011;67856;47.754;19.088;2023-09-08T06:40:29;10.52;;;5.72;;
78563;SDS011;67856;47.754;19.088;2023-09-08T06:43:31;9.60;;;5.90;;
78563;SDS011;67856;47.754;19.088;2023-09-08T06:46:39;10.87;;;5.70;;
78563;SDS011;67856;47.754;19.088;2023-09-08T06:49:43;12.48;;;5.60;;
78563;SDS011;67856;47.754;19.088;2023-09-08T06:52:45;10.10;;;5.88;;
78563;SDS011;67856;47.754;19.088;2023-09-08T06:55:48;15.82;;;5.32;;
78563;SDS011;67856;47.754;19.088;2023-09-08T06:58:51;11.77;;;5.40;;
78563;SDS011;67856;47.754;19.088;2023-09-08T07:01:54;12.50;;;5.60;;
78563;SDS011;67856;47.754;19.088;2023-09-08T07:04:58;12.38;;;6.43;;
78563;SDS011;67856;47.754;19.088;2023-09-08T07:08:01;14.82;;;5.90;;
78563;SDS011;67856;47.754;19.088;2023-09-08T07:11:04;17.02;;;5.93;;
78563;SDS011;67856;47.754;19.088;2023-09-08T07:14:07;15.80;;;6.30;;
78563;SDS011;67856;47.754;19.088;2023-09-08T07:17:09;10.13;;;5.33;;
78563;SDS011;67856;47.754;19.088;2023-09-08T07:20:12;15.75;;;5.97;;
78563;SDS011;67856;47.754;19.088;2023-09-08T07:23:18;10.65;;;5.82;;
78563;SDS011;67856;47.754;19.088;2023-09-08T07:26:21;19.23;;;5.90;;
78563;SDS011;67856;47.754;19.088;2023-09-08T07:29:26;10.50;;;5.50;;
78563;SDS011;67856;47.754;19.088;2023-09-08T07:32:29;15.43;;;5.93;;
78563;SDS011;67856;47.754;19.088;2023-09-08T07:35:32;8.90;;;5.78;;
78563;SDS011;67856;47.754;19.088;2023-09-08T07:38:34;10.60;;;5.53;;
78563;SDS011;67856;47.754;19.088;2023-09-08T07:41:38;6.75;;;5.18;;
78563;SDS011;67856;47.754;19.088;2023-09-08T07:44:44;12.93;;;5.80;;
78563;SDS011;67856;47.754;19.088;2023-09-08T07:47:47;12.13;;;6.27;;
78563;SDS011;67856;47.754;19.088;2023-09-08T07:50:49;10.52;;;5.90;;
78563;SDS011;67856;47.754;19.088;2023-09-08T07:53:52;11.63;;;5.78;;
78563;SDS011;67856;47.754;19.088;2023-09-08T07:56:55;11.25;;;5.85;;
78563;SDS011;67856;47.754;19.088;2023-09-08T07:59:58;18.10;;;6.10;;
78563;SDS011;67856;47.754;19.088;2023-09-08T08:03:00;17.53;;;6.23;;
78563;SDS011;67856;47.754;19.088;2023-09-08T08:06:03;20.73;;;6.40;;
78563;SDS011;67856;47.754;19.088;2023-09-08T08:09:06;13.40;;;5.88;;
78563;SDS011;67856;47.754;19.088;2023-09-08T08:12:28;9.75;;;5.70;;
78563;SDS011;67856;47.754;19.088;2023-09-08T08:15:37;17.87;;;6.50;;
78563;SDS011;67856;47.754;19.088;2023-09-08T08:18:41;13.00;;;5.83;;
78563;SDS011;67856;47.754;19.088;2023-09-08T08:21:43;11.25;;;6.10;;
78563;SDS011;67856;47.754;19.088;2023-09-08T08:24:46;18.20;;;6.10;;
78563;SDS011;67856;47.754;19.088;2023-09-08T08:27:48;13.90;;;5.78;;
78563;SDS011;67856;47.754;19.088;2023-09-08T08:30:51;14.20;;;6.20;;
78563;SDS011;67856;47.754;19.088;2023-09-08T08:33:54;15.60;;;6.10;;
78563;SDS011;67856;47.754;19.088;2023-09-08T08:36:56;11.95;;;6.20;;
78563;SDS011;67856;47.754;19.088;2023-09-08T08:39:59;10.93;;;6.30;;
78563;SDS011;67856;47.754;19.088;2023-09-08T08:43:01;13.70;;;6.22;;
78563;SDS011;67856;47.754;19.088;2023-09-08T08:46:04;15.73;;;7.27;;
78563;SDS011;67856;47.754;19.088;2023-09-08T08:49:06;15.67;;;6.33;;
78563;SDS011;67856;47.754;19.088;2023-09-08T08:52:10;13.43;;;6.55;;
78563;SDS011;67856;47.754;19.088;2023-09-08T08:55:14;16.05;;;6.43;;
78563;SDS011;67856;47.754;19.088;2023-09-08T08:58:17;18.83;;;6.85;;
78563;SDS011;67856;47.754;19.088;2023-09-08T09:01:23;21.97;;;6.70;;
78563;SDS011;67856;47.754;19.088;2023-09-08T09:04:27;27.97;;;6.63;;
78563;SDS011;67856;47.754;19.088;2023-09-08T09:07:30;17.75;;;6.72;;
78563;SDS011;67856;47.754;19.088;2023-09-08T09:10:33;16.90;;;6.55;;
78563;SDS011;67856;47.754;19.088;2023-09-08T09:13:39;13.25;;;6.15;;
78563;SDS011;67856;47.754;19.088;2023-09-08T09:16:42;14.80;;;6.40;;
78563;SDS011;67856;47.754;19.088;2023-09-08T09:19:45;14.50;;;6.27;;
78563;SDS011;67856;47.754;19.088;2023-09-08T09:22:48;11.80;;;5.97;;
78563;SDS011;67856;47.754;19.088;2023-09-08T09:25:51;13.65;;;6.20;;
78563;SDS011;67856;47.754;19.088;2023-09-08T09:28:54;9.25;;;5.82;;
78563;SDS011;67856;47.754;19.088;2023-09-08T09:31:58;13.57;;;6.30;;
78563;SDS011;67856;47.754;19.088;2023-09-08T09:35:10;12.70;;;6.07;;
78563;SDS011;67856;47.754;19.088;2023-09-08T09:38:13;11.65;;;6.45;;
78563;SDS011;67856;47.754;19.088;2023-09-08T09:41:16;9.45;;;5.90;;
78563;SDS011;67856;47.754;19.088;2023-09-08T09:44:18;12.65;;;6.20;;
78563;SDS011;67856;47.754;19.088;2023-09-08T09:47:21;13.00;;;6.10;;
78563;SDS011;67856;47.754;19.088;2023-09-08T09:50:31;20.57;;;6.03;;
78563;SDS011;67856;47.754;19.088;2023-09-08T09:57:22;11.43;;;5.57;;
78563;SDS011;67856;47.754;19.088;2023-09-08T10:00:26;9.77;;;5.65;;
78563;SDS011;67856;47.754;19.088;2023-09-08T10:03:29;12.47;;;5.83;;
78563;SDS011;67856;47.754;19.088;2023-09-08T10:06:33;9.83;;;5.53;;
78563;SDS011;67856;47.754;19.088;2023-09-08T10:09:36;14.48;;;5.75;;
78563;SDS011;67856;47.754;19.088;2023-09-08T10:12:39;8.77;;;5.43;;
78563;SDS011;67856;47.754;19.088;2023-09-08T10:15:45;7.45;;;5.70;;
78563;SDS011;67856;47.754;19.088;2023-09-08T10:18:48;8.77;;;5.50;;
78563;SDS011;67856;47.754;19.088;2023-09-08T10:21:54;10.73;;;6.10;;
78563;SDS011;67856;47.754;19.088;2023-09-08T10:24:57;10.85;;;5.47;;
78563;SDS011;67856;47.754;19.088;2023-09-08T10:28:06;9.80;;;5.93;;
78563;SDS011;67856;47.754;19.088;2023-09-08T10:31:10;8.88;;;5.70;;
78563;SDS011;67856;47.754;19.088;2023-09-08T10:34:16;12.13;;;5.93;;
78563;SDS011;67856;47.754;19.088;2023-09-08T10:37:20;8.73;;;5.80;;
78563;SDS011;67856;47.754;19.088;2023-09-08T10:40:24;10.18;;;5.75;;
78563;SDS011;67856;47.754;19.088;2023-09-08T10:43:29;11.32;;;5.75;;
78563;SDS011;67856;47.754;19.088;2023-09-08T10:46:32;8.55;;;5.80;;
78563;SDS011;67856;47.754;19.088;2023-09-08T10:49:35;8.67;;;5.43;;
78563;SDS011;67856;47.754;19.088;2023-09-08T10:52:38;8.27;;;5.80;;
78563;SDS011;67856;47.754;19.088;2023-09-08T10:55:41;7.82;;;5.45;;
78563;SDS011;67856;47.754;19.088;2023-09-08T10:58:48;10.73;;;5.40;;
78563;SDS011;67856;47.754;19.088;2023-09-08T11:01:54;10.82;;;5.88;;
78563;SDS011;67856;47.754;19.088;2023-09-08T11:04:56;11.70;;;6.00;;
78563;SDS011;67856;47.754;19.088;2023-09-08T11:07:59;8.63;;;5.53;;
78563;SDS011;67856;47.754;19.088;2023-09-08T11:11:01;8.10;;;5.75;;
78563;SDS011;67856;47.754;19.088;2023-09-08T11:14:04;9.27;;;5.82;;
78563;SDS011;67856;47.754;19.088;2023-09-08T11:17:07;9.90;;;5.57;;
78563;SDS011;67856;47.754;19.088;2023-09-08T11:20:09;9.43;;;5.53;;
78563;SDS011;67856;47.754;19.088;2023-09-08T11:23:13;8.60;;;5.77;;
78563;SDS011;67856;47.754;19.088;2023-09-08T11:26:15;8.45;;;5.70;;
78563;SDS011;67856;47.754;19.088;2023-09-08T11:29:19;9.32;;;5.80;;
78563;SDS011;67856;47.754;19.088;2023-09-08T11:32:21;12.90;;;6.05;;
78563;SDS011;67856;47.754;19.088;2023-09-08T11:35:25;13.27;;;5.77;;
78563;SDS011;67856;47.754;19.088;2023-09-08T11:38:29;8.90;;;5.20;;
78563;SDS011;67856;47.754;19.088;2023-09-08T11:41:32;9.80;;;5.60;;
78563;SDS011;67856;47.754;19.088;2023-09-08T11:44:35;8.85;;;5.18;;
78563;SDS011;67856;47.754;19.088;2023-09-08T11:47:42;9.15;;;5.00;;
78563;SDS011;67856;47.754;19.088;2023-09-08T11:50:45;9.90;;;5.30;;
78563;SDS011;67856;47.754;19.088;2023-09-08T11:53:47;9.17;;;5.00;;
78563;SDS011;67856;47.754;19.088;2023-09-08T11:56:50;6.97;;;5.00;;
78563;SDS011;67856;47.754;19.088;2023-09-08T11:59:54;6.22;;;4.45;;
78563;SDS011;67856;47.754;19.088;2023-09-08T12:03:08;7.72;;;4.80;;
78563;SDS011;67856;47.754;19.088;2023-09-08T12:06:14;11.57;;;4.53;;
78563;SDS011;67856;47.754;19.088;2023-09-08T12:09:16;11.13;;;5.03;;
78563;SDS011;67856;47.754;19.088;2023-09-08T12:12:19;12.98;;;4.90;;
78563;SDS011;67856;47.754;19.088;2023-09-08T12:15:40;12.43;;;4.95;;
78563;SDS011;67856;47.754;19.088;2023-09-08T12:18:43;9.50;;;4.60;;
78563;SDS011;67856;47.754;19.088;2023-09-08T12:21:54;8.67;;;4.70;;
78563;SDS011;67856;47.754;19.088;2023-09-08T12:24:58;7.77;;;4.50;;
78563;SDS011;67856;47.754;19.088;2023-09-08T12:28:04;7.72;;;4.70;;
78563;SDS011;67856;47.754;19.088;2023-09-08T12:31:07;8.10;;;4.40;;
78563;SDS011;67856;47.754;19.088;2023-09-08T12:34:10;8.82;;;4.70;;
78563;SDS011;67856;47.754;19.088;2023-09-08T12:37:18;7.63;;;4.53;;
78563;SDS011;67856;47.754;19.088;2023-09-08T12:40:22;13.43;;;4.97;;
78563;SDS011;67856;47.754;19.088;2023-09-08T12:43:24;8.55;;;4.50;;
78563;SDS011;67856;47.754;19.088;2023-09-08T12:46:29;8.82;;;4.53;;
78563;SDS011;67856;47.754;19.088;2023-09-08T12:49:34;7.07;;;4.50;;
78563;SDS011;67856;47.754;19.088;2023-09-08T12:52:38;7.73;;;4.60;;
78563;SDS011;67856;47.754;19.088;2023-09-08T12:55:40;6.63;;;4.50;;
78563;SDS011;67856;47.754;19.088;2023-09-08T12:58:43;10.65;;;4.78;;
78563;SDS011;67856;47.754;19.088;2023-09-08T13:01:45;7.38;;;4.30;;
78563;SDS011;67856;47.754;19.088;2023-09-08T13:04:48;7.00;;;4.50;;
78563;SDS011;67856;47.754;19.088;2023-09-08T13:07:50;6.37;;;4.40;;
78563;SDS011;67856;47.754;19.088;2023-09-08T13:10:53;6.37;;;4.20;;
78563;SDS011;67856;47.754;19.088;2023-09-08T13:13:56;12.05;;;4.80;;
78563;SDS011;67856;47.754;19.088;2023-09-08T13:16:59;10.05;;;4.50;;
78563;SDS011;67856;47.754;19.088;2023-09-08T13:20:02;7.25;;;4.18;;
78563;SDS011;67856;47.754;19.088;2023-09-08T13:23:05;7.13;;;4.30;;
78563;SDS011;67856;47.754;19.088;2023-09-08T13:26:08;10.93;;;5.13;;
78563;SDS011;67856;47.754;19.088;2023-09-08T13:29:10;8.25;;;4.40;;
78563;SDS011;67856;47.754;19.088;2023-09-08T13:32:12;5.95;;;4.20;;
78563;SDS011;67856;47.754;19.088;2023-09-08T13:35:16;10.85;;;4.15;;
78563;SDS011;67856;47.754;19.088;2023-09-08T13:38:19;11.60;;;4.40;;
78563;SDS011;67856;47.754;19.088;2023-09-08T13:41:21;6.83;;;4.00;;
78563;SDS011;67856;47.754;19.088;2023-09-08T13:44:24;7.40;;;4.10;;
78563;SDS011;67856;47.754;19.088;2023-09-08T13:47:27;9.10;;;4.47;;
78563;SDS011;67856;47.754;19.088;2023-09-08T13:50:30;6.07;;;3.92;;
78563;SDS011;67856;47.754;19.088;2023-09-08T13:53:35;6.20;;;4.30;;
78563;SDS011;67856;47.754;19.088;2023-09-08T13:56:56;9.30;;;4.43;;
78563;SDS011;67856;47.754;19.088;2023-09-08T14:00:03;7.65;;;4.15;;
78563;SDS011;67856;47.754;19.088;2023-09-08T14:03:11;5.43;;;4.20;;
78563;SDS011;67856;47.754;19.088;2023-09-08T14:06:16;8.10;;;4.07;;
78563;SDS011;67856;47.754;19.088;2023-09-08T14:09:23;7.53;;;4.10;;
78563;SDS011;67856;47.754;19.088;2023-09-08T14:12:28;5.57;;;4.07;;
78563;SDS011;67856;47.754;19.088;2023-09-08T14:15:36;11.82;;;4.40;;
78563;SDS011;67856;47.754;19.088;2023-09-08T14:18:39;12.00;;;4.10;;
78563;SDS011;67856;47.754;19.088;2023-09-08T14:21:42;6.10;;;4.07;;
78563;SDS011;67856;47.754;19.088;2023-09-08T14:24:45;12.23;;;4.20;;
78563;SDS011;67856;47.754;19.088;2023-09-08T14:27:47;5.03;;;4.10;;
78563;SDS011;67856;47.754;19.088;2023-09-08T14:30:50;6.13;;;4.20;;
78563;SDS011;67856;47.754;19.088;2023-09-08T14:33:53;8.00;;;4.30;;
78563;SDS011;67856;47.754;19.088;2023-09-08T14:36:55;10.93;;;4.43;;
78563;SDS011;67856;47.754;19.088;2023-09-08T14:39:58;8.03;;;4.30;;
78563;SDS011;67856;47.754;19.088;2023-09-08T14:43:00;6.67;;;4.20;;
78563;SDS011;67856;47.754;19.088;2023-09-08T14:46:02;7.40;;;4.28;;
78563;SDS011;67856;47.754;19.088;2023-09-08T14:49:06;8.23;;;4.38;;
78563;SDS011;67856;47.754;19.088;2023-09-08T14:52:08;7.95;;;4.40;;
78563;SDS011;67856;47.754;19.088;2023-09-08T14:55:11;7.77;;;4.17;;
78563;SDS011;67856;47.754;19.088;2023-09-08T14:58:14;9.87;;;4.30;;
78563;SDS011;67856;47.754;19.088;2023-09-08T15:01:17;10.80;;;4.30;;
78563;SDS011;67856;47.754;19.088;2023-09-08T15:04:19;7.13;;;4.32;;
78563;SDS011;67856;47.754;19.088;2023-09-08T15:07:23;7.95;;;4.45;;
78563;SDS011;67856;47.754;19.088;2023-09-08T15:10:25;7.93;;;4.17;;
78563;SDS011;67856;47.754;19.088;2023-09-08T15:13:28;7.67;;;4.30;;
78563;SDS011;67856;47.754;19.088;2023-09-08T15:16:31;6.72;;;4.10;;
78563;SDS011;67856;47.754;19.088;2023-09-08T15:19:33;10.32;;;3.90;;
78563;SDS011;67856;47.754;19.088;2023-09-08T15:22:36;11.30;;;4.43;;
78563;SDS011;67856;47.754;19.088;2023-09-08T15:25:38;11.63;;;4.23;;
78563;SDS011;67856;47.754;19.088;2023-09-08T15:28:41;9.60;;;4.20;;
78563;SDS011;67856;47.754;19.088;2023-09-08T15:31:43;10.77;;;4.00;;
78563;SDS011;67856;47.754;19.088;2023-09-08T15:34:48;11.32;;;4.60;;
78563;SDS011;67856;47.754;19.088;2023-09-08T15:37:52;9.95;;;4.38;;
78563;SDS011;67856;47.754;19.088;2023-09-08T15:41:12;10.63;;;4.13;;
78563;SDS011;67856;47.754;19.088;2023-09-08T15:44:19;7.50;;;3.87;;
78563;SDS011;67856;47.754;19.088;2023-09-08T15:47:21;10.52;;;4.55;;
78563;SDS011;67856;47.754;19.088;2023-09-08T15:50:24;8.35;;;4.07;;
78563;SDS011;67856;47.754;19.088;2023-09-08T15:53:26;14.70;;;4.75;;
78563;SDS011;67856;47.754;19.088;2023-09-08T15:56:29;6.03;;;4.00;;
78563;SDS011;67856;47.754;19.088;2023-09-08T15:59:31;7.93;;;4.10;;
78563;SDS011;67856;47.754;19.088;2023-09-08T16:02:33;6.07;;;3.85;;
78563;SDS011;67856;47.754;19.088;2023-09-08T16:05:36;8.00;;;3.90;;
78563;SDS011;67856;47.754;19.088;2023-09-08T16:08:38;7.38;;;4.32;;
78563;SDS011;67856;47.754;19.088;2023-09-08T16:11:41;7.13;;;3.73;;
78563;SDS011;67856;47.754;19.088;2023-09-08T16:14:43;10.07;;;4.30;;
78563;SDS011;67856;47.754;19.088;2023-09-08T16:17:46;7.45;;;4.05;;
78563;SDS011;67856;47.754;19.088;2023-09-08T16:20:48;10.10;;;4.05;;
78563;SDS011;67856;47.754;19.088;2023-09-08T16:23:51;6.38;;;3.90;;
78563;SDS011;67856;47.754;19.088;2023-09-08T16:26:53;8.07;;;3.70;;
78563;SDS011;67856;47.754;19.088;2023-09-08T16:29:59;6.20;;;3.70;;
78563;SDS011;67856;47.754;19.088;2023-09-08T16:33:01;8.07;;;3.75;;
78563;SDS011;67856;47.754;19.088;2023-09-08T16:36:04;7.57;;;3.90;;
78563;SDS011;67856;47.754;19.088;2023-09-08T16:39:06;8.65;;;3.88;;
78563;SDS011;67856;47.754;19.088;2023-09-08T16:42:09;5.73;;;4.20;;
78563;SDS011;67856;47.754;19.088;2023-09-08T16:45:11;9.90;;;4.13;;
78563;SDS011;67856;47.754;19.088;2023-09-08T16:48:16;5.30;;;3.80;;
78563;SDS011;67856;47.754;19.088;2023-09-08T16:51:19;7.25;;;4.03;;
78563;SDS011;67856;47.754;19.088;2023-09-08T16:54:21;6.68;;;4.10;;
78563;SDS011;67856;47.754;19.088;2023-09-08T16:57:23;8.23;;;3.63;;
78563;SDS011;67856;47.754;19.088;2023-09-08T17:00:26;5.73;;;4.00;;
78563;SDS011;67856;47.754;19.088;2023-09-08T17:03:28;7.10;;;4.07;;
78563;SDS011;67856;47.754;19.088;2023-09-08T17:06:31;7.13;;;4.03;;
78563;SDS011;67856;47.754;19.088;2023-09-08T17:09:34;7.88;;;3.80;;
78563;SDS011;67856;47.754;19.088;2023-09-08T17:12:37;6.57;;;3.90;;
78563;SDS011;67856;47.754;19.088;2023-09-08T17:15:39;6.00;;;4.00;;
78563;SDS011;67856;47.754;19.088;2023-09-08T17:18:41;7.70;;;3.78;;
78563;SDS011;67856;47.754;19.088;2023-09-08T17:21:44;6.75;;;3.40;;
78563;SDS011;67856;47.754;19.088;2023-09-08T17:24:49;7.35;;;3.85;;
78563;SDS011;67856;47.754;19.088;2023-09-08T17:27:51;5.53;;;3.80;;
78563;SDS011;67856;47.754;19.088;2023-09-08T17:30:54;6.10;;;3.43;;
78563;SDS011;67856;47.754;19.088;2023-09-08T17:33:56;5.20;;;3.83;;
78563;SDS011;67856;47.754;19.088;2023-09-08T17:36:59;5.60;;;3.88;;
78563;SDS011;67856;47.754;19.088;2023-09-08T17:40:05;7.18;;;3.50;;
78563;SDS011;67856;47.754;19.088;2023-09-08T17:43:08;7.80;;;4.00;;
78563;SDS011;67856;47.754;19.088;2023-09-08T17:46:11;7.93;;;3.80;;
78563;SDS011;67856;47.754;19.088;2023-09-08T17:49:13;8.27;;;3.95;;
78563;SDS011;67856;47.754;19.088;2023-09-08T17:52:16;6.38;;;3.60;;
78563;SDS011;67856;47.754;19.088;2023-09-08T17:55:18;7.15;;;3.65;;
78563;SDS011;67856;47.754;19.088;2023-09-08T17:58:21;8.10;;;3.93;;
78563;SDS011;67856;47.754;19.088;2023-09-08T18:01:23;5.60;;;3.63;;
78563;SDS011;67856;47.754;19.088;2023-09-08T18:04:26;7.43;;;3.83;;
78563;SDS011;67856;47.754;19.088;2023-09-08T18:07:28;6.30;;;3.60;;